Terminal Aerodrome Forecast
Issued by NWS Atlanta, GA

Home | Current Version | Previous Version | Text Only | Print | Product List | Glossary On
Versions: 1 2 3 4 5 6 7 8 9 10 11 12 13 14 15 16 17
000
FTUS42 KFFC 301129
TAFCSG
TAF
KCSG 301129Z 3012/3112 19003KT P6SM SCT015 SCT250
     FM301500 19008KT P6SM SCT040 BKN250
     FM301800 22010KT P6SM BKN045
     FM302200 21010G20KT P6SM VCSH BKN045
     FM310300 19008KT 5SM -SHRA BKN030 PROB30 3103/3107 VRB20G30KT
      3SM TSRA BKN020CB
     FM310900 25006KT P6SM OVC015=

USA.gov is the U.S. government's official web portal to all federal, state and local government web resources and services.